Time;durP1;ratioP1;P1;durP2;ratioP2;P2;SDS_P1;SDS_P2;PMS_P1;PMS_P2;Temp;Humidity;BMP_temperature;BMP_pressure;BME280_temperature;BME280_humidity;BME280_pressure;Samples;Min_cycle;Max_cycle;Signal;HPM_P1;HPM_P2
2021/11/06 00:00:15;;;;;;;;;;;307.30;2099.20;;;;;;5090151;28;20002;-66
2021/11/06 00:02:41;;;;;;;;;;;307.30;2099.20;;;;;;5072890;28;19908;-67
2021/11/06 00:05:06;;;;;;;;;;;307.30;2099.20;;;;;;5074628;28;20350;-66
2021/11/06 00:07:32;;;;;;;;;;;307.20;2099.20;;;;;;5074371;28;19951;-67
2021/11/06 00:09:58;;;;;;;;;;;307.40;2099.20;;;;;;5074904;28;19961;-66
2021/11/06 00:12:24;;;;;;;;;;;307.20;2099.20;;;;;;5074310;28;19904;-65
2021/11/06 00:14:49;;;;;;;;;;;307.20;2099.20;;;;;;5073123;28;19915;-67
2021/11/06 00:17:15;;;;;;;;;;;307.20;2073.60;;;;;;5072965;28;19904;-67
2021/11/06 00:19:40;;;;;;;;;;;307.20;2073.60;;;;;;5074143;28;19986;-66
2021/11/06 00:22:07;;;;;;;;;;;307.20;2073.60;;;;;;5072814;28;19911;-66
2021/11/06 00:24:32;;;;;;;;;;;307.20;2099.20;;;;;;5074232;28;19962;-67
2021/11/06 00:26:58;;;;;;;;;;;307.20;2099.20;;;;;;5072726;28;19912;-67
2021/11/06 00:29:24;;;;;;;;;;;307.20;2073.60;;;;;;5074190;28;20011;-66
2021/11/06 00:31:50;;;;;;;;;;;307.20;2073.60;;;;;;5073890;28;19908;-66
2021/11/06 00:34:15;;;;;;;;;;;307.20;2073.60;;;;;;5074272;28;19913;-65
2021/11/06 00:36:41;;;;;;;;;;;307.20;2099.20;;;;;;5074348;28;19998;-65
2021/11/06 00:39:06;;;;;;;;;;;307.20;2073.60;;;;;;5074153;28;19910;-66
2021/11/06 00:41:32;;;;;;;;;;;307.20;2073.60;;;;;;5074211;28;19908;-67
2021/11/06 00:43:58;;;;;;;;;;;307.20;2099.20;;;;;;5073954;28;19915;-66
2021/11/06 00:46:24;;;;;;;;;;;282.50;2073.60;;;;;;5074264;28;19944;-67
2021/11/06 00:48:49;;;;;;;;;;;282.50;2073.60;;;;;;5073861;28;19916;-66
2021/11/06 00:51:15;;;;;;;;;;;307.20;2099.20;;;;;;5073428;28;19904;-66
2021/11/06 00:53:41;;;;;;;;;;;282.50;2073.60;;;;;;5074008;28;19913;-67
2021/11/06 00:56:06;;;;;;;;;;;282.50;2073.60;;;;;;5074100;28;19905;-66
2021/11/06 00:58:32;;;;;;;;;;;282.50;2073.60;;;;;;5073937;28;20251;-67
2021/11/06 01:00:57;;;;;;;;;;;282.50;2073.60;;;;;;5073781;28;19908;-67
2021/11/06 01:03:23;;;;;;;;;;;282.50;2073.60;;;;;;5073764;28;19944;-66
2021/11/06 01:05:49;;;;;;;;;;;282.50;2073.60;;;;;;5073124;28;19904;-67
2021/11/06 01:08:15;;;;;;;;;;;282.50;2073.60;;;;;;5073374;28;19911;-65
2021/11/06 01:10:40;;;;;;;;;;;282.50;2073.60;;;;;;5074066;28;19939;-67
2021/11/06 01:13:06;;;;;;;;;;;282.50;2073.60;;;;;;5073564;28;19908;-66
2021/11/06 01:15:32;;;;;;;;;;;282.50;2073.60;;;;;;5077564;28;19912;-66
2021/11/06 01:17:57;;;;;;;;;;;282.50;2073.60;;;;;;5077132;28;19904;-66
2021/11/06 01:20:23;;;;;;;;;;;282.50;2073.60;;;;;;5075991;28;19908;-66
2021/11/06 01:22:49;;;;;;;;;;;282.40;2073.60;;;;;;5076940;28;19912;-66
2021/11/06 01:25:15;;;;;;;;;;;282.50;2073.60;;;;;;5076437;28;19904;-65
2021/11/06 01:27:40;;;;;;;;;;;282.40;2073.60;;;;;;5077425;28;19950;-66
2021/11/06 01:30:07;;;;;;;;;;;282.50;2073.60;;;;;;5077684;28;19904;-67
2021/11/06 01:32:33;;;;;;;;;;;282.40;2073.60;;;;;;5075863;28;19908;-66
2021/11/06 01:34:58;;;;;;;;;;;282.50;2073.60;;;;;;5077334;28;19918;-66
2021/11/06 01:37:24;;;;;;;;;;;282.50;2073.60;;;;;;5075978;28;19905;-65
2021/11/06 01:39:50;;;;;;;;;;;282.50;2073.60;;;;;;5077176;28;19927;-67
2021/11/06 01:42:15;;;;;;;;;;;282.50;2048.00;;;;;;5077121;28;19904;-66
2021/11/06 01:44:41;;;;;;;;;;;282.50;2073.60;;;;;;5077220;28;19911;-66
2021/11/06 01:47:09;;;;;;;;;;;282.50;2073.60;;;;;;5077132;28;19916;-65
2021/11/06 01:49:36;;;;;;;;;;;282.50;2073.60;;;;;;5077011;28;20351;-67
2021/11/06 01:52:02;;;;;;;;;;;282.50;2073.60;;;;;;5076846;28;19911;-67
2021/11/06 01:54:27;;;;;;;;;;;282.50;2073.60;;;;;;5076853;28;19912;-66
2021/11/06 01:56:56;;;;;;;;;;;282.50;2073.60;;;;;;5075670;28;19904;-68
2021/11/06 01:59:22;;;;;;;;;;;282.50;2048.00;;;;;;5076854;28;19904;-66
2021/11/06 02:01:48;;;;;;;;;;;282.50;2073.60;;;;;;5076794;28;19905;-65
2021/11/06 02:04:13;;;;;;;;;;;282.50;2048.00;;;;;;5076635;28;19987;-66
2021/11/06 02:06:39;;;;;;;;;;;282.50;2073.60;;;;;;5076948;28;19904;-66
2021/11/06 02:09:04;;;;;;;;;;;282.50;2073.60;;;;;;5076563;28;19931;-67
2021/11/06 02:11:32;;;;;;;;;;;282.50;2073.60;;;;;;5076450;28;19904;-65
2021/11/06 02:13:57;;;;;;;;;;;282.50;2073.60;;;;;;5076528;28;19919;-66
2021/11/06 02:16:23;;;;;;;;;;;282.50;2073.60;;;;;;5075007;28;20269;-65
2021/11/06 02:18:49;;;;;;;;;;;282.50;2073.60;;;;;;5076750;28;19927;-66
2021/11/06 02:21:14;;;;;;;;;;;282.50;2073.60;;;;;;5076405;28;19958;-67
2021/11/06 02:23:42;;;;;;;;;;;282.50;2073.60;;;;;;5076386;28;20270;-67
2021/11/06 02:26:08;;;;;;;;;;;307.20;2073.60;;;;;;5076062;28;19911;-67
2021/11/06 02:28:34;;;;;;;;;;;282.50;2048.00;;;;;;5076372;28;19904;-65
2021/11/06 02:31:00;;;;;;;;;;;282.50;2073.60;;;;;;5076400;28;19973;-66
2021/11/06 02:33:26;;;;;;;;;;;282.50;2073.60;;;;;;5076239;28;20311;-66
2021/11/06 02:35:52;;;;;;;;;;;282.50;2048.00;;;;;;5076604;28;20235;-66
2021/11/06 02:38:17;;;;;;;;;;;282.50;2048.00;;;;;;5075981;28;20346;-67
2021/11/06 02:40:43;;;;;;;;;;;282.50;2048.00;;;;;;5076079;28;19915;-67
2021/11/06 02:43:11;;;;;;;;;;;282.50;2048.00;;;;;;5076262;28;19904;-65
2021/11/06 02:45:37;;;;;;;;;;;282.50;2048.00;;;;;;5076021;28;19923;-67
2021/11/06 02:48:04;;;;;;;;;;;282.50;2048.00;;;;;;5075072;28;19920;-67
2021/11/06 02:50:30;;;;;;;;;;;282.50;2048.00;;;;;;5075100;28;19910;-66
2021/11/06 02:52:56;;;;;;;;;;;282.50;2048.00;;;;;;5075922;28;19954;-65
2021/11/06 02:55:22;;;;;;;;;;;282.50;2048.00;;;;;;5075727;28;19904;-66
2021/11/06 02:57:48;;;;;;;;;;;282.50;2048.00;;;;;;5075780;28;19905;-66
2021/11/06 03:00:14;;;;;;;;;;;282.50;2048.00;;;;;;5075732;28;19908;-67
2021/11/06 03:02:39;;;;;;;;;;;282.50;2048.00;;;;;;5076053;28;20408;-66
2021/11/06 03:05:06;;;;;;;;;;;282.50;2048.00;;;;;;5074088;28;19904;-66
2021/11/06 03:07:31;;;;;;;;;;;282.50;2048.00;;;;;;5075775;28;19905;-65
2021/11/06 03:09:57;;;;;;;;;;;282.50;2048.00;;;;;;5074086;28;19905;-65
2021/11/06 03:12:23;;;;;;;;;;;282.50;2048.00;;;;;;5075680;28;19958;-67
2021/11/06 03:14:49;;;;;;;;;;;282.50;2048.00;;;;;;5075287;28;20013;-65
2021/11/06 03:17:14;;;;;;;;;;;307.20;2073.60;;;;;;5075312;28;19944;-66
2021/11/06 03:19:40;;;;;;;;;;;282.50;2048.00;;;;;;5075562;28;19912;-67
2021/11/06 03:22:06;;;;;;;;;;;282.50;2048.00;;;;;;5073320;28;20002;-65
2021/11/06 03:24:32;;;;;;;;;;;307.20;2073.60;;;;;;5075286;28;19926;-65
2021/11/06 03:26:57;;;;;;;;;;;282.50;2048.00;;;;;;5073474;28;20350;-67
2021/11/06 03:29:23;;;;;;;;;;;282.50;2048.00;;;;;;5075282;28;19962;-65
2021/11/06 03:31:48;;;;;;;;;;;282.50;2048.00;;;;;;5075066;28;20308;-66
2021/11/06 03:34:15;;;;;;;;;;;307.20;2048.00;;;;;;5074909;28;19913;-65
2021/11/06 03:36:40;;;;;;;;;;;282.50;2048.00;;;;;;5073973;28;19944;-65
2021/11/06 03:39:06;;;;;;;;;;;282.50;2048.00;;;;;;5074829;28;20374;-67
2021/11/06 03:41:32;;;;;;;;;;;307.20;2073.60;;;;;;5074832;28;20283;-65
2021/11/06 03:43:57;;;;;;;;;;;282.50;2048.00;;;;;;5074825;28;19947;-67
2021/11/06 03:46:23;;;;;;;;;;;282.50;2048.00;;;;;;5074724;28;19904;-66
2021/11/06 03:48:48;;;;;;;;;;;282.50;2048.00;;;;;;5074614;28;19928;-65
2021/11/06 03:51:14;;;;;;;;;;;282.50;2022.40;;;;;;5075072;28;19904;-67
2021/11/06 03:53:40;;;;;;;;;;;282.50;2048.00;;;;;;5074422;28;19913;-67
2021/11/06 03:56:05;;;;;;;;;;;282.50;2022.40;;;;;;5074679;28;19904;-65
2021/11/06 03:58:31;;;;;;;;;;;282.50;2022.40;;;;;;5074672;28;19942;-66
2021/11/06 04:00:56;;;;;;;;;;;282.50;2022.40;;;;;;5073791;28;19930;-67
2021/11/06 04:03:22;;;;;;;;;;;282.50;2022.40;;;;;;5074638;28;20312;-66
2021/11/06 04:05:48;;;;;;;;;;;282.50;2022.40;;;;;;5074620;28;20239;-67
2021/11/06 04:08:13;;;;;;;;;;;282.50;2022.40;;;;;;5074317;28;20309;-66
2021/11/06 04:10:39;;;;;;;;;;;282.50;2022.40;;;;;;5074574;28;19957;-67
2021/11/06 04:13:04;;;;;;;;;;;282.50;2022.40;;;;;;5074184;28;20349;-65
2021/11/06 04:15:30;;;;;;;;;;;282.50;2048.00;;;;;;5074469;28;19950;-65
2021/11/06 04:17:56;;;;;;;;;;;307.20;2048.00;;;;;;5072546;28;19905;-67
2021/11/06 04:20:21;;;;;;;;;;;282.50;2022.40;;;;;;5073096;28;19955;-65
2021/11/06 04:22:50;;;;;;;;;;;282.50;2022.40;;;;;;5074183;28;19905;-65
2021/11/06 04:25:16;;;;;;;;;;;282.50;2022.40;;;;;;5074301;28;19991;-65
2021/11/06 04:27:41;;;;;;;;;;;282.40;2048.00;;;;;;5074017;28;19955;-66
2021/11/06 04:30:07;;;;;;;;;;;282.40;2048.00;;;;;;5074064;28;19904;-67
2021/11/06 04:32:32;;;;;;;;;;;282.40;2022.40;;;;;;5074438;28;19923;-66
2021/11/06 04:34:58;;;;;;;;;;;282.50;2048.00;;;;;;5074660;28;19916;-66
2021/11/06 04:37:24;;;;;;;;;;;282.50;2022.40;;;;;;5074217;28;20286;-66
2021/11/06 04:39:49;;;;;;;;;;;282.50;2022.40;;;;;;5072517;28;19905;-67
2021/11/06 04:42:15;;;;;;;;;;;282.40;2022.40;;;;;;5074243;28;19911;-67
2021/11/06 04:44:40;;;;;;;;;;;282.40;2022.40;;;;;;5072256;28;19905;-66
2021/11/06 04:47:06;;;;;;;;;;;282.40;2022.40;;;;;;5073671;28;19916;-67
2021/11/06 04:49:31;;;;;;;;;;;282.40;2022.40;;;;;;5078425;28;20038;-66
2021/11/06 04:51:57;;;;;;;;;;;282.40;2022.40;;;;;;5078317;28;19904;-66
2021/11/06 04:54:22;;;;;;;;;;;282.40;2022.40;;;;;;5078048;28;20266;-66
2021/11/06 04:56:50;;;;;;;;;;;282.40;2022.40;;;;;;5077889;28;19911;-66
2021/11/06 04:59:16;;;;;;;;;;;282.40;2022.40;;;;;;5078288;28;19911;-66
2021/11/06 05:01:42;;;;;;;;;;;282.40;2022.40;;;;;;5078073;28;19924;-65
2021/11/06 05:04:07;;;;;;;;;;;282.40;2022.40;;;;;;5078237;28;20301;-65
2021/11/06 05:06:33;;;;;;;;;;;282.40;2022.40;;;;;;5078275;28;19905;-65
2021/11/06 05:08:59;;;;;;;;;;;282.40;2022.40;;;;;;5075602;28;19908;-65
2021/11/06 05:11:24;;;;;;;;;;;282.40;1996.80;;;;;;5078066;28;19904;-68
2021/11/06 05:13:50;;;;;;;;;;;282.40;2022.40;;;;;;5077662;28;20027;-68
2021/11/06 05:16:15;;;;;;;;;;;282.40;2022.40;;;;;;5077687;28;20388;-66
2021/11/06 05:18:42;;;;;;;;;;;282.40;1996.80;;;;;;5077246;28;19904;-65
2021/11/06 05:21:07;;;;;;;;;;;282.40;1996.80;;;;;;5077488;28;19940;-65
2021/11/06 05:23:33;;;;;;;;;;;282.40;1996.80;;;;;;5077459;28;19951;-68
2021/11/06 05:25:58;;;;;;;;;;;282.40;1971.20;;;;;;5076913;28;20028;-67
2021/11/06 05:28:24;;;;;;;;;;;282.40;1996.80;;;;;;5077261;28;19904;-68
2021/11/06 05:30:50;;;;;;;;;;;282.40;1996.80;;;;;;5077494;28;19904;-65
2021/11/06 05:33:16;;;;;;;;;;;282.40;1996.80;;;;;;5077347;28;19912;-66
2021/11/06 05:35:41;;;;;;;;;;;282.40;1996.80;;;;;;5075982;28;19904;-67
2021/11/06 05:38:07;;;;;;;;;;;282.40;1996.80;;;;;;5076733;28;19911;-67
2021/11/06 05:40:32;;;;;;;;;;;282.40;1996.80;;;;;;5075562;28;19916;-66
2021/11/06 05:42:58;;;;;;;;;;;282.30;1996.80;;;;;;5077065;28;19995;-67
2021/11/06 05:45:25;;;;;;;;;;;282.40;2022.40;;;;;;5077243;28;19939;-67
2021/11/06 05:47:50;;;;;;;;;;;282.30;1996.80;;;;;;5077028;28;19987;-67
2021/11/06 05:50:17;;;;;;;;;;;282.30;1996.80;;;;;;5077038;28;20338;-65
2021/11/06 05:52:42;;;;;;;;;;;282.30;1996.80;;;;;;5076776;28;20353;-65
2021/11/06 05:55:09;;;;;;;;;;;282.30;2022.40;;;;;;5077106;28;19916;-68
2021/11/06 05:57:35;;;;;;;;;;;282.30;2022.40;;;;;;5076714;28;19908;-68
2021/11/06 06:00:03;;;;;;;;;;;282.30;2022.40;;;;;;5075862;28;19912;-68
2021/11/06 06:02:28;;;;;;;;;;;282.30;2022.40;;;;;;5076697;28;19915;-66
2021/11/06 06:04:54;;;;;;;;;;;282.30;1996.80;;;;;;5076837;28;19904;-65
2021/11/06 06:07:20;;;;;;;;;;;282.30;1996.80;;;;;;5077014;28;19912;-68
2021/11/06 06:09:46;;;;;;;;;;;282.30;2022.40;;;;;;5076790;28;19904;-68
2021/11/06 06:12:11;;;;;;;;;;;282.30;1996.80;;;;;;5076587;28;19930;-66
2021/11/06 06:14:37;;;;;;;;;;;282.30;2022.40;;;;;;5075709;28;19948;-68
2021/11/06 06:17:03;;;;;;;;;;;282.30;2022.40;;;;;;5076491;28;19927;-66
2021/11/06 06:19:29;;;;;;;;;;;282.30;2022.40;;;;;;5076453;28;19908;-65
2021/11/06 06:21:54;;;;;;;;;;;282.30;2022.40;;;;;;5076737;28;19904;-66
2021/11/06 06:24:20;;;;;;;;;;;282.30;2022.40;;;;;;5076557;28;20042;-68
2021/11/06 06:26:45;;;;;;;;;;;282.30;2022.40;;;;;;5076474;28;19904;-68
2021/11/06 06:29:11;;;;;;;;;;;282.30;1996.80;;;;;;5074919;28;20266;-67
2021/11/06 06:31:36;;;;;;;;;;;282.30;1996.80;;;;;;5076517;28;19908;-68
2021/11/06 06:34:02;;;;;;;;;;;282.30;1996.80;;;;;;5076510;28;19958;-68
2021/11/06 06:36:27;;;;;;;;;;;282.30;1996.80;;;;;;5076243;28;19905;-65
2021/11/06 06:38:53;;;;;;;;;;;282.30;1996.80;;;;;;5075823;28;20385;-67
2021/11/06 06:41:19;;;;;;;;;;;282.30;1996.80;;;;;;5073554;28;19957;-65
2021/11/06 06:43:44;;;;;;;;;;;282.30;1996.80;;;;;;5075815;28;19904;-65
2021/11/06 06:46:10;;;;;;;;;;;282.30;1996.80;;;;;;5075442;28;19958;-65
2021/11/06 06:48:35;;;;;;;;;;;282.30;1996.80;;;;;;5075620;28;19923;-64
2021/11/06 06:51:01;;;;;;;;;;;282.30;1971.20;;;;;;5075732;28;19904;-65
2021/11/06 06:53:27;;;;;;;;;;;282.30;1996.80;;;;;;5075834;28;19912;-65
2021/11/06 06:55:52;;;;;;;;;;;282.30;1971.20;;;;;;5075803;28;20274;-64
2021/11/06 06:58:18;;;;;;;;;;;282.40;1971.20;;;;;;5075669;28;19908;-65
2021/11/06 07:00:44;;;;;;;;;;;282.40;1971.20;;;;;;5075678;28;19909;-64
2021/11/06 07:03:09;;;;;;;;;;;282.40;1971.20;;;;;;5074017;28;20369;-65
2021/11/06 07:05:35;;;;;;;;;;;282.40;1971.20;;;;;;5075938;28;19904;-65
2021/11/06 07:08:00;;;;;;;;;;;282.50;2022.40;;;;;;5075365;28;20354;-65
2021/11/06 07:10:26;;;;;;;;;;;307.30;2124.80;;;;;;5075292;28;19911;-64
2021/11/06 07:12:52;;;;;;;;;;;307.30;1996.80;;;;;;5073845;28;20362;-64
2021/11/06 07:15:18;;;;;;;;;;;307.30;1996.80;;;;;;5104605;28;19997;-67
2021/11/06 07:17:44;;;;;;;;;;;307.30;1971.20;;;;;;5115652;28;20353;-63
2021/11/06 07:20:10;;;;;;;;;;;307.30;1971.20;;;;;;5091347;28;19907;-64
2021/11/06 07:22:35;;;;;;;;;;;307.30;1971.20;;;;;;5095393;28;20269;-64
2021/11/06 07:25:02;;;;;;;;;;;307.30;1996.80;;;;;;5095484;28;19904;-64
2021/11/06 07:27:27;;;;;;;;;;;307.30;1971.20;;;;;;5069289;28;19914;-64
2021/11/06 07:29:53;;;;;;;;;;;307.30;1971.20;;;;;;5074507;28;20007;-64
2021/11/06 07:32:18;;;;;;;;;;;307.30;1971.20;;;;;;5095285;28;19978;-64
2021/11/06 07:34:44;;;;;;;;;;;307.30;1971.20;;;;;;5095093;28;19911;-66
2021/11/06 07:37:10;;;;;;;;;;;307.30;1971.20;;;;;;5076664;28;19904;-66
2021/11/06 07:39:35;;;;;;;;;;;307.30;1971.20;;;;;;5095250;28;19904;-66
2021/11/06 07:42:01;;;;;;;;;;;307.40;1945.60;;;;;;5095348;28;19934;-66
2021/11/06 07:44:26;;;;;;;;;;;307.40;1945.60;;;;;;5076642;28;19996;-66
2021/11/06 07:46:52;;;;;;;;;;;307.50;1945.60;;;;;;5095224;28;20322;-66
2021/11/06 07:49:18;;;;;;;;;;;307.40;1945.60;;;;;;5076490;28;20306;-66
2021/11/06 07:51:44;;;;;;;;;;;307.40;1945.60;;;;;;5094220;28;19904;-66
2021/11/06 07:54:09;;;;;;;;;;;307.40;1945.60;;;;;;5094770;28;19953;-66
2021/11/06 07:56:37;;;;;;;;;;;307.50;1945.60;;;;;;5094278;28;19957;-66
2021/11/06 07:59:03;;;;;;;;;;;307.50;1945.60;;;;;;5094978;28;19962;-66
2021/11/06 08:01:29;;;;;;;;;;;307.50;1945.60;;;;;;5075696;28;19967;-66
2021/11/06 08:03:55;;;;;;;;;;;307.50;1920.00;;;;;;5094676;28;19930;-66
2021/11/06 08:06:21;;;;;;;;;;;307.50;1920.00;;;;;;5094644;28;19911;-66
2021/11/06 08:08:46;;;;;;;;;;;307.50;1894.40;;;;;;5096219;28;20262;-66
2021/11/06 08:11:12;;;;;;;;;;;307.50;1920.00;;;;;;5094672;28;20064;-66
2021/11/06 08:13:37;;;;;;;;;;;307.50;1920.00;;;;;;5094644;28;19912;-66
2021/11/06 08:16:03;;;;;;;;;;;307.50;1920.00;;;;;;5093895;28;19911;-66
2021/11/06 08:18:29;;;;;;;;;;;307.60;1894.40;;;;;;5094699;28;20018;-66
2021/11/06 08:20:55;;;;;;;;;;;307.60;1894.40;;;;;;5094711;28;19949;-66
2021/11/06 08:23:21;;;;;;;;;;;307.60;1868.80;;;;;;5093585;28;19946;-66
2021/11/06 08:25:47;;;;;;;;;;;307.60;1868.80;;;;;;5094432;28;19908;-66
2021/11/06 08:28:13;;;;;;;;;;;307.60;1868.80;;;;;;5094608;28;19904;-66
2021/11/06 08:30:38;;;;;;;;;;;307.60;1868.80;;;;;;5094416;28;19915;-66
2021/11/06 08:33:04;;;;;;;;;;;307.60;1868.80;;;;;;5094461;28;20259;-66
2021/11/06 08:35:30;;;;;;;;;;;307.60;1868.80;;;;;;5094410;28;19908;-66
2021/11/06 08:37:59;;;;;;;;;;;307.60;1843.20;;;;;;5094103;28;20278;-66
2021/11/06 08:40:25;;;;;;;;;;;307.60;1843.20;;;;;;5094408;28;19904;-66
2021/11/06 08:42:52;;;;;;;;;;;307.60;1843.20;;;;;;5094329;28;20312;-66
2021/11/06 08:45:18;;;;;;;;;;;307.60;1843.20;;;;;;5094202;28;19911;-66
2021/11/06 08:47:44;;;;;;;;;;;307.70;1843.20;;;;;;5075429;28;19924;-66
2021/11/06 08:50:14;;;;;;;;;;;307.70;1868.80;;;;;;5093828;28;20358;-66
2021/11/06 08:52:40;;;;;;;;;;;307.70;1843.20;;;;;;5093970;28;19911;-66
2021/11/06 08:55:06;;;;;;;;;;;307.70;1843.20;;;;;;5093738;28;19912;-66
2021/11/06 08:57:36;;;;;;;;;;;307.70;1843.20;;;;;;5094226;28;19911;-66
2021/11/06 09:00:13;;;;;;;;;;;307.80;1817.60;;;;;;5093960;28;19904;-66
2021/11/06 09:02:39;;;;;;;;;;;307.70;1792.00;;;;;;5093869;28;20034;-66
2021/11/06 09:05:06;;;;;;;;;;;307.70;1817.60;;;;;;5093988;28;19943;-66
2021/11/06 09:07:33;;;;;;;;;;;307.70;1817.60;;;;;;5094000;28;20304;-66
2021/11/06 09:10:09;;;;;;;;;;;307.80;1843.20;;;;;;5094179;28;19931;-66
2021/11/06 09:12:35;;;;;;;;;;;307.80;1843.20;;;;;;5075875;28;20357;-66
2021/11/06 09:15:02;;;;;;;;;;;307.80;1817.60;;;;;;5093818;28;19958;-66
2021/11/06 09:17:27;;;;;;;;;;;307.80;1843.20;;;;;;5094111;28;19966;-66
2021/11/06 09:19:53;;;;;;;;;;;307.80;1817.60;;;;;;5094054;28;20342;-66
2021/11/06 09:22:19;;;;;;;;;;;307.80;1817.60;;;;;;5093423;28;20335;-66
2021/11/06 09:24:44;;;;;;;;;;;307.90;1843.20;;;;;;5094004;28;19904;-66
2021/11/06 09:27:11;;;;;;;;;;;307.90;1868.80;;;;;;5093965;28;19926;-66
2021/11/06 09:29:37;;;;;;;;;;;307.90;1868.80;;;;;;5093906;28;19986;-68
2021/11/06 09:32:02;;;;;;;;;;;307.90;1894.40;;;;;;5096409;28;19962;-68
2021/11/06 09:34:28;;;;;;;;;;;308.00;1843.20;;;;;;5096788;28;20310;-65
2021/11/06 09:36:56;;;;;;;;;;;308.00;1817.60;;;;;;5103107;28;20474;-66
2021/11/06 09:39:21;;;;;;;;;;;307.90;1766.40;;;;;;5082357;28;20361;-65
2021/11/06 09:41:47;;;;;;;;;;;307.90;1766.40;;;;;;5090057;28;19918;-65
2021/11/06 09:44:13;;;;;;;;;;;307.90;1766.40;;;;;;5097632;28;19912;-65
2021/11/06 09:46:38;;;;;;;;;;;307.80;1766.40;;;;;;5095653;28;19915;-65
2021/11/06 09:49:04;;;;;;;;;;;307.70;1792.00;;;;;;5093023;28;19916;-65
2021/11/06 09:51:30;;;;;;;;;;;307.70;1792.00;;;;;;5097278;28;19915;-65
2021/11/06 09:53:55;;;;;;;;;;;307.70;1817.60;;;;;;5078153;28;20277;-69
2021/11/06 09:56:23;;;;;;;;;;;307.70;1817.60;;;;;;5079743;28;19904;-64
2021/11/06 09:58:49;;;;;;;;;;;307.70;1817.60;;;;;;5094549;28;19914;-70
2021/11/06 10:01:14;;;;;;;;;;;307.60;1792.00;;;;;;5094628;28;20278;-65
2021/11/06 10:03:40;;;;;;;;;;;307.70;1792.00;;;;;;5093908;28;19933;-65
2021/11/06 10:06:07;;;;;;;;;;;307.70;1792.00;;;;;;5096951;28;19911;-65
2021/11/06 10:08:38;;;;;;;;;;;307.70;1792.00;;;;;;5094162;28;19939;-64
2021/11/06 10:11:03;;;;;;;;;;;307.70;1843.20;;;;;;5092910;28;19913;-65
2021/11/06 10:13:29;;;;;;;;;;;307.70;1843.20;;;;;;5096771;28;20431;-67
2021/11/06 10:15:57;;;;;;;;;;;307.70;1843.20;;;;;;5094270;28;19904;-64
2021/11/06 10:18:23;;;;;;;;;;;307.70;1817.60;;;;;;5080071;28;19911;-64
2021/11/06 10:20:57;;;;;;;;;;;307.70;1868.80;;;;;;5093901;28;19907;-61
2021/11/06 10:23:26;;;;;;;;;;;307.70;1868.80;;;;;;5097005;28;19950;-63
2021/11/06 10:26:07;;;;;;;;;;;307.70;1843.20;;;;;;5094050;28;19946;-64
2021/11/06 10:28:33;;;;;;;;;;;307.80;1868.80;;;;;;5093771;28;19964;-63
2021/11/06 10:31:01;;;;;;;;;;;308.00;1920.00;;;;;;5094167;28;19958;-63
2021/11/06 10:33:27;;;;;;;;;;;308.00;1792.00;;;;;;5096250;28;20365;-64
2021/11/06 10:35:52;;;;;;;;;;;307.90;1817.60;;;;;;5093405;28;19957;-65
2021/11/06 10:38:22;;;;;;;;;;;307.90;1817.60;;;;;;5093754;28;19911;-64
2021/11/06 10:40:52;;;;;;;;;;;307.90;1843.20;;;;;;5096185;28;20273;-64
2021/11/06 10:43:19;;;;;;;;;;;307.90;1817.60;;;;;;5094855;28;20282;-65
2021/11/06 10:45:47;;;;;;;;;;;307.90;1817.60;;;;;;5091742;28;20267;-62
2021/11/06 10:48:14;;;;;;;;;;;307.90;1792.00;;;;;;5094780;28;20057;-62
2021/11/06 10:50:48;;;;;;;;;;;307.90;1817.60;;;;;;5095418;28;19912;-67
2021/11/06 10:53:38;;;;;;;;;;;307.80;1817.60;;;;;;5093440;28;20389;-65
2021/11/06 10:56:23;;;;;;;;;;;307.80;1817.60;;;;;;5084773;28;19943;-66
2021/11/06 10:58:50;;;;;;;;;;;307.90;1843.20;;;;;;5002581;28;19974;-65
2021/11/06 11:01:18;;;;;;;;;;;307.80;1817.60;;;;;;5001976;28;19906;-65
2021/11/06 11:03:44;;;;;;;;;;;307.80;1817.60;;;;;;4984014;28;19948;-65
2021/11/06 11:06:21;;;;;;;;;;;307.90;1868.80;;;;;;4998322;28;20681;-62
2021/11/06 11:08:48;;;;;;;;;;;307.90;1843.20;;;;;;5000633;28;19937;-63
2021/11/06 11:11:18;;;;;;;;;;;307.80;1817.60;;;;;;5001251;28;19909;-66
2021/11/06 11:13:53;;;;;;;;;;;307.90;1817.60;;;;;;5002402;28;19951;-61
2021/11/06 11:16:19;;;;;;;;;;;307.90;1792.00;;;;;;5002061;28;19909;-63
2021/11/06 11:18:48;;;;;;;;;;;307.90;1817.60;;;;;;5000066;28;19966;-61
2021/11/06 11:21:25;;;;;;;;;;;307.90;1817.60;;;;;;5003311;28;19906;-64
2021/11/06 11:23:51;;;;;;;;;;;307.90;1817.60;;;;;;4998100;28;19910;-60
2021/11/06 11:26:17;;;;;;;;;;;307.90;1843.20;;;;;;5001018;28;19906;-59
2021/11/06 11:28:43;;;;;;;;;;;307.90;1868.80;;;;;;5002313;28;19932;-58
2021/11/06 11:31:09;;;;;;;;;;;307.90;1843.20;;;;;;5000195;28;19910;-60
2021/11/06 11:33:36;;;;;;;;;;;308.00;1843.20;;;;;;5000910;28;19917;-61
2021/11/06 11:36:02;;;;;;;;;;;308.00;1817.60;;;;;;5051977;28;19909;-60
2021/11/06 11:38:28;;;;;;;;;;;308.00;1843.20;;;;;;5091163;28;19904;-58
2021/11/06 11:41:02;;;;;;;;;;;308.00;1843.20;;;;;;5093989;28;19903;-59
2021/11/06 11:43:38;;;;;;;;;;;308.10;1868.80;;;;;;5095275;28;20262;-59
2021/11/06 11:46:08;;;;;;;;;;;308.10;1843.20;;;;;;5095064;28;19908;-61
2021/11/06 11:48:34;;;;;;;;;;;308.10;1843.20;;;;;;5091890;28;20006;-59
2021/11/06 11:51:02;;;;;;;;;;;308.10;1843.20;;;;;;5076509;28;20001;-59
2021/11/06 11:53:29;;;;;;;;;;;308.10;1843.20;;;;;;5090749;28;19908;-62
2021/11/06 11:56:05;;;;;;;;;;;332.80;1843.20;;;;;;5093161;28;19965;-61
2021/11/06 11:58:39;;;;;;;;;;;308.10;1843.20;;;;;;5091264;28;19908;-59
2021/11/06 12:01:05;;;;;;;;;;;308.10;1817.60;;;;;;5094961;28;19911;-60
2021/11/06 12:03:41;;;;;;;;;;;332.80;1894.40;;;;;;5096636;28;19911;-60
2021/11/06 12:06:19;;;;;;;;;;;332.80;1868.80;;;;;;5098736;28;19904;-59
2021/11/06 12:08:45;;;;;;;;;;;332.80;1868.80;;;;;;5093621;28;19911;-60
2021/11/06 12:11:12;;;;;;;;;;;332.80;1868.80;;;;;;5074925;28;19904;-59
2021/11/06 12:13:39;;;;;;;;;;;332.80;1868.80;;;;;;5075498;28;20507;-59
2021/11/06 12:16:12;;;;;;;;;;;308.10;1843.20;;;;;;5093520;28;20350;-59
2021/11/06 12:18:37;;;;;;;;;;;308.10;1817.60;;;;;;5093138;28;19925;-60
2021/11/06 12:21:16;;;;;;;;;;;332.80;1843.20;;;;;;5094161;28;19991;-60
2021/11/06 12:23:44;;;;;;;;;;;332.80;1843.20;;;;;;5093565;28;19911;-60
2021/11/06 12:26:20;;;;;;;;;;;332.80;1843.20;;;;;;5074843;28;20014;-59
2021/11/06 12:28:47;;;;;;;;;;;332.80;1868.80;;;;;;5093531;28;19904;-59
2021/11/06 12:31:29;;;;;;;;;;;332.80;1868.80;;;;;;5093616;28;19904;-59
2021/11/06 12:33:55;;;;;;;;;;;332.80;1843.20;;;;;;5093187;28;19918;-59
2021/11/06 12:36:22;;;;;;;;;;;332.80;1843.20;;;;;;5093314;28;20376;-59
2021/11/06 12:38:48;;;;;;;;;;;332.80;1843.20;;;;;;5093246;28;19911;-62
2021/11/06 12:41:14;;;;;;;;;;;332.80;1843.20;;;;;;5092979;28;19903;-60
2021/11/06 12:43:50;;;;;;;;;;;332.80;1843.20;;;;;;5093457;28;20350;-59
2021/11/06 12:46:25;;;;;;;;;;;332.80;1843.20;;;;;;5093454;28;20437;-59
2021/11/06 12:48:52;;;;;;;;;;;332.80;1843.20;;;;;;5092989;28;20001;-60
2021/11/06 12:51:28;;;;;;;;;;;332.80;1868.80;;;;;;5092414;28;19904;-60
2021/11/06 12:53:56;;;;;;;;;;;332.80;1843.20;;;;;;5073056;28;19924;-59
2021/11/06 12:56:25;;;;;;;;;;;332.80;1843.20;;;;;;5055224;28;19920;-62
2021/11/06 12:59:04;;;;;;;;;;;332.80;1868.80;;;;;;5072807;28;20316;-62
2021/11/06 13:01:30;;;;;;;;;;;332.80;1843.20;;;;;;5072601;28;19992;-60
2021/11/06 13:03:57;;;;;;;;;;;332.90;1843.20;;;;;;5084053;28;19938;-61
2021/11/06 13:06:33;;;;;;;;;;;332.80;1817.60;;;;;;5094464;28;19915;-62
2021/11/06 13:09:10;;;;;;;;;;;332.90;1843.20;;;;;;5094217;28;20329;-64
2021/11/06 13:11:48;;;;;;;;;;;332.80;1843.20;;;;;;5095459;28;19908;-61
2021/11/06 13:14:40;;;;;;;;;;;332.80;1843.20;;;;;;5095297;28;20354;-61
2021/11/06 13:17:14;;;;;;;;;;;332.90;1843.20;;;;;;5023859;28;20343;-63
2021/11/06 13:19:44;;;;;;;;;;;332.80;1843.20;;;;;;5024736;28;19909;-60
2021/11/06 13:22:13;;;;;;;;;;;332.90;1843.20;;;;;;5022470;28;19909;-62
2021/11/06 13:24:57;;;;;;;;;;;332.90;1843.20;;;;;;5024081;28;19909;-61
2021/11/06 13:27:36;;;;;;;;;;;332.90;1843.20;;;;;;5025325;28;19913;-61
2021/11/06 13:30:20;;;;;;;;;;;332.80;1843.20;;;;;;5025010;28;19905;-60
2021/11/06 13:32:57;;;;;;;;;;;332.90;1843.20;;;;;;5025060;28;19996;-61
2021/11/06 13:35:24;;;;;;;;;;;332.90;1843.20;;;;;;5028065;28;19961;-61
2021/11/06 13:38:12;;;;;;;;;;;332.80;1843.20;;;;;;5035482;28;19905;-61
2021/11/06 13:40:44;;;;;;;;;;;332.90;1868.80;;;;;;5035700;28;20362;-62